Time;durP1;ratioP1;P1;durP2;ratioP2;P2;SDS_P1;SDS_P2;PMS_P1;PMS_P2;Temp;Humidity;BMP_temperature;BMP_pressure;BME280_temperature;BME280_humidity;BME280_pressure;Samples;Min_cycle;Max_cycle;Signal;HPM_P1;HPM_P2
2021/09/03 00:01:45;;;;;;;21.30;14.15;;;;;;;;;;5078807;28;20025;-63
2021/09/03 00:04:11;;;;;;;21.17;13.50;;;;;;;;;;5078908;28;20032;-63
2021/09/03 00:06:37;;;;;;;20.55;13.82;;;;;;;;;;5078648;28;20548;-62
2021/09/03 00:09:04;;;;;;;21.50;13.77;;;;;;;;;;5078596;28;20028;-63
2021/09/03 00:11:30;;;;;;;20.92;14.35;;;;;;;;;;5078575;28;20068;-63
2021/09/03 00:13:56;;;;;;;22.52;13.82;;;;;;;;;;5078813;28;20077;-63
2021/09/03 00:16:22;;;;;;;20.05;12.77;;;;;;;;;;5074829;28;20025;-63
2021/09/03 00:18:48;;;;;;;18.60;13.52;;;;;;;;;;5078845;28;20024;-63
2021/09/03 00:21:15;;;;;;;21.10;13.27;;;;;;;;;;5075047;28;20475;-63
2021/09/03 00:23:41;;;;;;;21.42;13.63;;;;;;;;;;5077995;28;20025;-63
2021/09/03 00:26:07;;;;;;;20.90;13.48;;;;;;;;;;5078593;28;20032;-63
2021/09/03 00:28:33;;;;;;;21.10;13.77;;;;;;;;;;5078429;28;20028;-63
2021/09/03 00:30:59;;;;;;;22.00;14.20;;;;;;;;;;5076939;28;20027;-63
2021/09/03 00:33:25;;;;;;;21.13;14.10;;;;;;;;;;5078511;28;20024;-63
2021/09/03 00:35:51;;;;;;;20.02;13.35;;;;;;;;;;5078466;28;20029;-63
2021/09/03 00:38:17;;;;;;;21.05;13.70;;;;;;;;;;5077952;28;20031;-63
2021/09/03 00:40:43;;;;;;;19.42;13.20;;;;;;;;;;5078402;28;20040;-63
2021/09/03 00:43:10;;;;;;;19.05;12.77;;;;;;;;;;5078290;28;20025;-64
2021/09/03 00:45:36;;;;;;;22.38;14.00;;;;;;;;;;5078469;28;20024;-63
2021/09/03 00:48:02;;;;;;;18.75;13.18;;;;;;;;;;5078162;28;20027;-63
2021/09/03 00:50:28;;;;;;;21.52;13.65;;;;;;;;;;5066351;28;20024;-63
2021/09/03 00:52:54;;;;;;;20.67;13.63;;;;;;;;;;5077844;28;20029;-63
2021/09/03 00:55:20;;;;;;;21.40;14.30;;;;;;;;;;5078138;28;20028;-63
2021/09/03 00:57:46;;;;;;;18.25;13.05;;;;;;;;;;5077971;28;20502;-63
2021/09/03 01:00:13;;;;;;;22.90;14.30;;;;;;;;;;5078065;28;20158;-63
2021/09/03 01:02:39;;;;;;;18.55;12.13;;;;;;;;;;5077790;28;20035;-63
2021/09/03 01:05:06;;;;;;;22.83;13.95;;;;;;;;;;5077875;28;20036;-64
2021/09/03 01:07:32;;;;;;;20.83;13.77;;;;;;;;;;5077798;28;20024;-64
2021/09/03 01:09:58;;;;;;;20.73;14.48;;;;;;;;;;5077632;28;20036;-64
2021/09/03 01:12:24;;;;;;;21.85;12.82;;;;;;;;;;5077610;28;20426;-64
2021/09/03 01:14:50;;;;;;;20.30;13.35;;;;;;;;;;5070555;28;20490;-64
2021/09/03 01:17:16;;;;;;;21.70;14.18;;;;;;;;;;5071610;28;20024;-64
2021/09/03 01:19:42;;;;;;;19.35;12.93;;;;;;;;;;5077775;28;20032;-64
2021/09/03 01:22:09;;;;;;;22.45;14.02;;;;;;;;;;5077672;28;20483;-64
2021/09/03 01:24:35;;;;;;;22.23;14.05;;;;;;;;;;5077320;28;20031;-64
2021/09/03 01:27:01;;;;;;;20.48;12.85;;;;;;;;;;5077428;28;20486;-64
2021/09/03 01:29:27;;;;;;;19.88;13.02;;;;;;;;;;5077360;28;20024;-64
2021/09/03 01:31:53;;;;;;;18.75;13.38;;;;;;;;;;5077477;28;20024;-64
2021/09/03 01:34:19;;;;;;;21.73;14.38;;;;;;;;;;5077765;28;20508;-64
2021/09/03 01:36:45;;;;;;;19.70;12.30;;;;;;;;;;5077346;28;20021;-63
2021/09/03 01:39:11;;;;;;;23.35;13.20;;;;;;;;;;5077213;28;20032;-64
2021/09/03 01:41:38;;;;;;;18.25;12.63;;;;;;;;;;5077033;28;20035;-64
2021/09/03 01:44:04;;;;;;;18.73;12.90;;;;;;;;;;5077463;28;20033;-63
2021/09/03 01:46:30;;;;;;;20.17;14.45;;;;;;;;;;5077357;28;20091;-63
2021/09/03 01:48:56;;;;;;;19.20;12.38;;;;;;;;;;5070582;28;20085;-64
2021/09/03 01:51:22;;;;;;;20.33;13.20;;;;;;;;;;5073306;28;20111;-64
2021/09/03 01:53:48;;;;;;;18.88;12.93;;;;;;;;;;5077043;28;20035;-64
2021/09/03 01:56:14;;;;;;;21.02;12.38;;;;;;;;;;5077165;28;20028;-64
2021/09/03 01:58:41;;;;;;;21.42;13.07;;;;;;;;;;5077354;28;20074;-63
2021/09/03 02:01:07;;;;;;;19.08;12.77;;;;;;;;;;5077232;28;20070;-64
2021/09/03 02:03:33;;;;;;;20.00;13.30;;;;;;;;;;5077154;28;20029;-63
2021/09/03 02:05:59;;;;;;;19.63;12.18;;;;;;;;;;5077090;28;20021;-63
2021/09/03 02:08:25;;;;;;;17.45;12.50;;;;;;;;;;5077003;28;20024;-63
2021/09/03 02:10:51;;;;;;;19.80;13.10;;;;;;;;;;5077047;28;20031;-63
2021/09/03 02:13:17;;;;;;;20.25;12.38;;;;;;;;;;5077022;28;20041;-64
2021/09/03 02:15:43;;;;;;;19.10;13.27;;;;;;;;;;5066347;28;20098;-64
2021/09/03 02:18:09;;;;;;;20.40;13.63;;;;;;;;;;5081197;28;20506;-63
2021/09/03 02:20:36;;;;;;;20.38;12.90;;;;;;;;;;5080918;28;20047;-63
2021/09/03 02:23:02;;;;;;;19.80;12.15;;;;;;;;;;5080983;28;20107;-63
2021/09/03 02:25:28;;;;;;;19.25;12.55;;;;;;;;;;5080762;28;20112;-63
2021/09/03 02:27:54;;;;;;;17.77;12.50;;;;;;;;;;5081096;28;20421;-63
2021/09/03 02:30:20;;;;;;;21.55;13.52;;;;;;;;;;5080431;28;20017;-64
2021/09/03 02:32:46;;;;;;;21.58;13.23;;;;;;;;;;5081079;28;20031;-63
2021/09/03 02:35:12;;;;;;;19.35;12.77;;;;;;;;;;5080608;28;20028;-64
2021/09/03 02:37:38;;;;;;;19.98;12.98;;;;;;;;;;5080691;28;20055;-63
2021/09/03 02:40:05;;;;;;;20.90;14.23;;;;;;;;;;5080338;28;20479;-64
2021/09/03 02:42:31;;;;;;;19.45;12.98;;;;;;;;;;5080997;28;20402;-63
2021/09/03 02:44:57;;;;;;;20.27;13.77;;;;;;;;;;5080463;28;20024;-63
2021/09/03 02:47:23;;;;;;;19.92;12.77;;;;;;;;;;5080640;28;20028;-63
2021/09/03 02:49:49;;;;;;;21.90;13.02;;;;;;;;;;5068539;28;20048;-63
2021/09/03 02:52:16;;;;;;;18.45;12.70;;;;;;;;;;5080679;28;20090;-63
2021/09/03 02:54:42;;;;;;;19.35;12.52;;;;;;;;;;5079953;28;20021;-63
2021/09/03 02:57:08;;;;;;;19.23;11.80;;;;;;;;;;5080550;28;20036;-63
2021/09/03 02:59:34;;;;;;;21.05;12.57;;;;;;;;;;5080409;28;20024;-63
2021/09/03 03:02:00;;;;;;;20.25;12.45;;;;;;;;;;5078977;28;20443;-63
2021/09/03 03:04:26;;;;;;;18.65;12.90;;;;;;;;;;5080125;28;20032;-63
2021/09/03 03:06:52;;;;;;;19.80;12.55;;;;;;;;;;5080107;28;20090;-63
2021/09/03 03:09:18;;;;;;;18.27;12.45;;;;;;;;;;5079773;28;20510;-63
2021/09/03 03:11:44;;;;;;;21.73;12.60;;;;;;;;;;5080023;28;20044;-63
2021/09/03 03:14:15;;;;;;;21.20;12.98;;;;;;;;;;5078075;28;20055;-63
2021/09/03 03:16:41;;;;;;;19.15;12.65;;;;;;;;;;5069301;28;20024;-63
2021/09/03 03:19:07;;;;;;;18.88;12.10;;;;;;;;;;5080011;28;20028;-64
2021/09/03 03:21:33;;;;;;;21.20;12.43;;;;;;;;;;5080058;28;20039;-64
2021/09/03 03:23:59;;;;;;;21.60;12.95;;;;;;;;;;5079282;28;20055;-64
2021/09/03 03:26:25;;;;;;;21.35;12.23;;;;;;;;;;5078571;28;20051;-64
2021/09/03 03:28:51;;;;;;;20.40;11.73;;;;;;;;;;5079678;28;20024;-64
2021/09/03 03:31:18;;;;;;;16.70;11.60;;;;;;;;;;5079371;28;20028;-64
2021/09/03 03:33:44;;;;;;;19.23;12.07;;;;;;;;;;5079621;28;20025;-64
2021/09/03 03:36:10;;;;;;;20.33;12.25;;;;;;;;;;5079722;28;20074;-64
2021/09/03 03:38:36;;;;;;;21.13;13.40;;;;;;;;;;5079122;28;20100;-64
2021/09/03 03:41:02;;;;;;;20.13;12.32;;;;;;;;;;5079618;28;20023;-64
2021/09/03 03:43:28;;;;;;;17.85;12.25;;;;;;;;;;5079422;28;20400;-64
2021/09/03 03:45:55;;;;;;;20.60;13.07;;;;;;;;;;5079327;28;20465;-64
2021/09/03 03:48:23;;;;;;;18.20;12.02;;;;;;;;;;5077037;28;20024;-64
2021/09/03 03:50:49;;;;;;;22.42;13.30;;;;;;;;;;5070207;28;20031;-64
2021/09/03 03:53:15;;;;;;;19.42;12.48;;;;;;;;;;5078924;28;20028;-64
2021/09/03 03:55:41;;;;;;;20.13;11.98;;;;;;;;;;5079325;28;20051;-64
2021/09/03 03:58:07;;;;;;;17.25;11.93;;;;;;;;;;5079211;28;20387;-64
2021/09/03 04:00:33;;;;;;;20.55;12.82;;;;;;;;;;5078144;28;20032;-64
2021/09/03 04:02:59;;;;;;;22.40;13.38;;;;;;;;;;5079030;28;20154;-63
2021/09/03 04:05:25;;;;;;;19.85;12.35;;;;;;;;;;5079282;28;20166;-63
2021/09/03 04:07:51;;;;;;;18.65;11.70;;;;;;;;;;5078576;28;20016;-63
2021/09/03 04:10:18;;;;;;;21.48;13.30;;;;;;;;;;5079228;28;20020;-63
2021/09/03 04:12:44;;;;;;;19.25;12.10;;;;;;;;;;5078607;28;20037;-63
2021/09/03 04:15:11;;;;;;;19.42;12.25;;;;;;;;;;5068746;28;20502;-63
2021/09/03 04:17:37;;;;;;;18.58;12.25;;;;;;;;;;5075568;28;20029;-63
2021/09/03 04:20:03;;;;;;;16.23;11.77;;;;;;;;;;5079046;28;20025;-63
2021/09/03 04:22:29;;;;;;;18.15;11.85;;;;;;;;;;5078651;28;20025;-64
2021/09/03 04:24:55;;;;;;;18.50;11.85;;;;;;;;;;5078373;28;20032;-65
2021/09/03 04:27:21;;;;;;;18.08;11.02;;;;;;;;;;5078425;28;20031;-64
2021/09/03 04:29:47;;;;;;;21.92;12.68;;;;;;;;;;5078476;28;20025;-66
2021/09/03 04:32:14;;;;;;;20.17;12.93;;;;;;;;;;5078406;28;20020;-65
2021/09/03 04:34:40;;;;;;;21.42;13.35;;;;;;;;;;5078628;28;20024;-59
2021/09/03 04:37:06;;;;;;;23.88;13.93;;;;;;;;;;5077879;28;20029;-61
2021/09/03 04:39:33;;;;;;;20.98;12.63;;;;;;;;;;5078344;28;20036;-62
2021/09/03 04:41:59;;;;;;;23.90;13.60;;;;;;;;;;5078245;28;20383;-61
2021/09/03 04:44:25;;;;;;;23.10;13.82;;;;;;;;;;5078406;28;20055;-62
2021/09/03 04:46:51;;;;;;;23.02;14.32;;;;;;;;;;5078004;28;20509;-63
2021/09/03 04:49:17;;;;;;;31.05;16.63;;;;;;;;;;5067095;28;20025;-63
2021/09/03 04:51:43;;;;;;;27.55;16.50;;;;;;;;;;5076426;28;20020;-63
2021/09/03 04:54:09;;;;;;;23.85;14.88;;;;;;;;;;5078032;28;20028;-61
2021/09/03 04:56:36;;;;;;;28.30;15.57;;;;;;;;;;5077886;28;20024;-61
2021/09/03 04:59:02;;;;;;;21.80;14.15;;;;;;;;;;5078270;28;20035;-65
2021/09/03 05:01:28;;;;;;;23.05;13.98;;;;;;;;;;5077810;28;20024;-62
2021/09/03 05:03:54;;;;;;;29.75;16.42;;;;;;;;;;5078081;28;20029;-62
2021/09/03 05:06:20;;;;;;;27.33;16.15;;;;;;;;;;5077672;28;20024;-60
2021/09/03 05:08:46;;;;;;;26.58;14.85;;;;;;;;;;5077736;28;20052;-59
2021/09/03 05:11:12;;;;;;;26.60;14.98;;;;;;;;;;5077831;28;20032;-60
2021/09/03 05:13:38;;;;;;;25.75;14.70;;;;;;;;;;5077944;28;20082;-60
2021/09/03 05:16:05;;;;;;;26.10;13.75;;;;;;;;;;5061655;28;20032;-61
2021/09/03 05:18:32;;;;;;;24.65;14.15;;;;;;;;;;5077452;28;20052;-61
2021/09/03 05:20:58;;;;;;;26.73;14.98;;;;;;;;;;5077663;28;20425;-61
2021/09/03 05:23:24;;;;;;;24.17;13.48;;;;;;;;;;5077282;28;20032;-60
2021/09/03 05:25:50;;;;;;;26.70;13.38;;;;;;;;;;5077460;28;20394;-62
2021/09/03 05:28:17;;;;;;;19.77;12.20;;;;;;;;;;5077576;28;20020;-61
2021/09/03 05:30:43;;;;;;;23.98;13.82;;;;;;;;;;5077156;28;20103;-62
2021/09/03 05:33:09;;;;;;;25.83;15.00;;;;;;;;;;5077684;28;20046;-64
2021/09/03 05:35:35;;;;;;;22.63;13.45;;;;;;;;;;5076970;28;20051;-61
2021/09/03 05:38:04;;;;;;;24.80;15.10;;;;;;;;;;5075628;28;20033;-62
2021/09/03 05:40:34;;;;;;;31.63;17.52;;;;;;;;;;5077275;28;20443;-61
2021/09/03 05:43:00;;;;;;;29.05;16.58;;;;;;;;;;5077468;28;20107;-60
2021/09/03 05:45:26;;;;;;;29.85;16.08;;;;;;;;;;5077715;28;20023;-59
2021/09/03 05:47:52;;;;;;;31.77;16.25;;;;;;;;;;5076657;28;20032;-61
2021/09/03 05:50:19;;;;;;;26.02;16.00;;;;;;;;;;5065179;28;20020;-61
2021/09/03 05:52:45;;;;;;;28.85;15.75;;;;;;;;;;5076969;28;20025;-61
2021/09/03 05:55:12;;;;;;;24.60;15.68;;;;;;;;;;5077502;28;20028;-61
2021/09/03 05:57:38;;;;;;;25.38;15.27;;;;;;;;;;5077003;28;20036;-62
2021/09/03 06:00:05;;;;;;;23.48;15.57;;;;;;;;;;5077422;28;20407;-62
2021/09/03 06:02:31;;;;;;;24.50;13.57;;;;;;;;;;5076959;28;20029;-61
2021/09/03 06:04:57;;;;;;;25.92;14.90;;;;;;;;;;5077058;28;20537;-61
2021/09/03 06:07:24;;;;;;;22.30;14.18;;;;;;;;;;5076882;28;20558;-61
2021/09/03 06:09:50;;;;;;;24.27;14.27;;;;;;;;;;5076763;28;20025;-63
2021/09/03 06:12:16;;;;;;;24.27;14.38;;;;;;;;;;5075254;28;20048;-64
2021/09/03 06:14:42;;;;;;;22.40;12.50;;;;;;;;;;5071006;28;20031;-63
2021/09/03 06:17:08;;;;;;;21.75;12.40;;;;;;;;;;5068910;28;20025;-64
2021/09/03 06:19:34;;;;;;;20.98;13.77;;;;;;;;;;5076787;28;20066;-63
2021/09/03 06:22:01;;;;;;;22.23;13.25;;;;;;;;;;5076787;28;20471;-63
2021/09/03 06:24:31;;;;;;;21.60;12.75;;;;;;;;;;5076335;28;20078;-63
2021/09/03 06:27:01;;;;;;;25.33;14.15;;;;;;;;;;5076827;28;20074;-63
2021/09/03 06:32:04;;;;;;;19.27;11.93;;;;;;;;;;5076605;28;20972;-63
2021/09/03 06:34:31;;;;;;;20.52;12.02;;;;;;;;;;5076900;28;20471;-63
2021/09/03 06:36:57;;;;;;;20.33;12.60;;;;;;;;;;5076375;28;20039;-63
2021/09/03 06:39:23;;;;;;;19.58;12.50;;;;;;;;;;5076293;28;20099;-63
2021/09/03 06:41:49;;;;;;;18.23;11.60;;;;;;;;;;5076245;28;20039;-63
2021/09/03 06:44:15;;;;;;;19.58;12.40;;;;;;;;;;5076859;28;20036;-63
2021/09/03 06:46:41;;;;;;;19.27;12.13;;;;;;;;;;5076169;28;20024;-63
2021/09/03 06:49:07;;;;;;;20.63;12.55;;;;;;;;;;5067914;28;20024;-63
2021/09/03 06:51:34;;;;;;;20.02;12.60;;;;;;;;;;5072968;28;20051;-63
2021/09/03 06:54:00;;;;;;;19.58;12.45;;;;;;;;;;5076319;28;20028;-63
2021/09/03 06:56:26;;;;;;;21.45;12.15;;;;;;;;;;5076160;28;20021;-62
2021/09/03 06:58:52;;;;;;;18.70;12.50;;;;;;;;;;5076191;28;20025;-63
2021/09/03 07:01:18;;;;;;;18.85;11.88;;;;;;;;;;5077881;28;20021;-63
2021/09/03 07:03:45;;;;;;;20.42;11.55;;;;;;;;;;5079366;28;20029;-63
2021/09/03 07:06:11;;;;;;;17.65;12.20;;;;;;;;;;5079586;28;20055;-63
2021/09/03 07:08:37;;;;;;;20.40;11.85;;;;;;;;;;5079735;28;20020;-63
2021/09/03 07:11:03;;;;;;;18.58;12.25;;;;;;;;;;5079855;28;20028;-63
2021/09/03 07:13:30;;;;;;;16.92;11.40;;;;;;;;;;5079174;28;20050;-63
2021/09/03 07:15:56;;;;;;;20.80;11.65;;;;;;;;;;5065806;28;20445;-64
2021/09/03 07:18:22;;;;;;;19.63;11.25;;;;;;;;;;5079545;28;20553;-63
2021/09/03 07:20:48;;;;;;;18.67;11.35;;;;;;;;;;5079467;28;20059;-63
2021/09/03 07:23:15;;;;;;;18.85;11.35;;;;;;;;;;5079392;28;20096;-63
2021/09/03 07:25:41;;;;;;;17.83;11.38;;;;;;;;;;5079193;28;20031;-63
2021/09/03 07:28:07;;;;;;;19.52;11.65;;;;;;;;;;5079271;28;20021;-63
2021/09/03 07:30:33;;;;;;;15.15;9.75;;;;;;;;;;5078799;28;20049;-63
2021/09/03 07:32:59;;;;;;;19.80;11.18;;;;;;;;;;5079182;28;20023;-63
2021/09/03 07:35:25;;;;;;;16.08;10.48;;;;;;;;;;5079011;28;20025;-63
2021/09/03 07:37:51;;;;;;;15.85;10.77;;;;;;;;;;5078788;28;20028;-63
2021/09/03 07:40:18;;;;;;;16.85;11.00;;;;;;;;;;5078945;28;20086;-63
2021/09/03 07:42:44;;;;;;;19.33;10.82;;;;;;;;;;5079345;28;20455;-64
2021/09/03 07:45:11;;;;;;;17.83;10.07;;;;;;;;;;5079253;28;20376;-63
2021/09/03 07:47:37;;;;;;;14.57;9.77;;;;;;;;;;5079037;28;20486;-63
2021/09/03 07:50:04;;;;;;;15.68;9.55;;;;;;;;;;5067322;28;20017;-63
2021/09/03 07:52:30;;;;;;;15.80;10.10;;;;;;;;;;5079082;28;20024;-63
2021/09/03 07:54:56;;;;;;;15.90;10.40;;;;;;;;;;5078828;28;20031;-63
2021/09/03 07:57:22;;;;;;;16.83;10.70;;;;;;;;;;5079054;28;20025;-63
2021/09/03 07:59:49;;;;;;;16.50;10.63;;;;;;;;;;5078736;28;20850;-64
2021/09/03 08:02:15;;;;;;;18.23;10.75;;;;;;;;;;5078676;28;20119;-64
2021/09/03 08:04:41;;;;;;;18.83;11.05;;;;;;;;;;5078236;28;20471;-63
2021/09/03 08:07:07;;;;;;;17.17;10.30;;;;;;;;;;5077606;28;20031;-62
2021/09/03 08:09:33;;;;;;;16.67;10.27;;;;;;;;;;5078317;28;20111;-63
2021/09/03 08:11:59;;;;;;;17.90;11.05;;;;;;;;;;5077917;28;20123;-63
2021/09/03 08:14:26;;;;;;;17.65;10.80;;;;;;;;;;5074135;28;20036;-64
2021/09/03 08:16:52;;;;;;;20.25;12.90;;;;;;;;;;5069199;28;20035;-63
2021/09/03 08:19:18;;;;;;;20.30;11.75;;;;;;;;;;5078607;28;20029;-61
2021/09/03 08:21:44;;;;;;;23.48;14.13;;;;;;;;;;5078546;28;20048;-62
2021/09/03 08:24:11;;;;;;;23.00;15.82;;;;;;;;;;5077848;28;20064;-62
2021/09/03 08:26:38;;;;;;;36.90;22.35;;;;;;;;;;5077926;28;20013;-61
2021/09/03 08:29:05;;;;;;;36.63;22.98;;;;;;;;;;5076927;28;20020;-63
2021/09/03 08:31:32;;;;;;;36.83;22.67;;;;;;;;;;5077167;28;20067;-63
2021/09/03 08:33:58;;;;;;;37.35;22.95;;;;;;;;;;5077764;28;20119;-63
2021/09/03 08:36:24;;;;;;;37.67;22.30;;;;;;;;;;5078255;28;20036;-62
2021/09/03 08:38:50;;;;;;;38.90;22.63;;;;;;;;;;5078015;28;20021;-63
2021/09/03 08:41:20;;;;;;;33.80;21.35;;;;;;;;;;5077901;28;20028;-63
2021/09/03 08:43:46;;;;;;;33.63;21.52;;;;;;;;;;5077883;28;20028;-63
2021/09/03 08:46:14;;;;;;;33.30;20.88;;;;;;;;;;5077932;28;20032;-63
2021/09/03 08:48:40;;;;;;;30.50;19.33;;;;;;;;;;5072763;28;20056;-63
2021/09/03 08:51:06;;;;;;;30.15;19.23;;;;;;;;;;5071002;28;20100;-63
2021/09/03 08:53:33;;;;;;;31.70;18.60;;;;;;;;;;5077483;28;20028;-63
2021/09/03 08:55:59;;;;;;;26.83;17.35;;;;;;;;;;5078066;28;20096;-62
2021/09/03 08:58:25;;;;;;;26.55;17.38;;;;;;;;;;5077576;28;20479;-63
2021/09/03 09:01:10;;;;;;;26.02;17.02;;;;;;;;;;5077709;28;20089;-63
2021/09/03 09:03:38;;;;;;;23.48;15.32;;;;;;;;;;5077509;28;20028;-62
2021/09/03 09:06:04;;;;;;;23.63;16.02;;;;;;;;;;5077306;28;20029;-62
2021/09/03 09:08:33;;;;;;;25.27;16.05;;;;;;;;;;5077217;28;20051;-63
2021/09/03 09:10:59;;;;;;;23.23;14.77;;;;;;;;;;5077614;28;20020;-63
2021/09/03 09:13:26;;;;;;;21.88;14.43;;;;;;;;;;5077451;28;20109;-63
2021/09/03 09:16:00;;;;;;;22.05;15.02;;;;;;;;;;5063621;28;20032;-66
2021/09/03 09:18:33;;;;;;;25.83;13.98;;;;;;;;;;5076995;28;20033;-59
2021/09/03 09:21:14;;;;;;;20.85;13.10;;;;;;;;;;5077359;28;20518;-60
2021/09/03 09:23:45;;;;;;;24.25;15.23;;;;;;;;;;5076944;28;20029;-59
2021/09/03 09:26:12;;;;;;;23.48;13.73;;;;;;;;;;5067269;28;20041;-60
2021/09/03 09:28:39;;;;;;;21.65;13.80;;;;;;;;;;5077078;28;20052;-59
2021/09/03 09:31:05;;;;;;;21.13;14.32;;;;;;;;;;5076558;28;20471;-59
2021/09/03 09:33:32;;;;;;;22.55;13.75;;;;;;;;;;5076374;28;20032;-59
2021/09/03 09:36:01;;;;;;;20.00;13.23;;;;;;;;;;5075926;28;20028;-60
2021/09/03 09:38:35;;;;;;;21.40;13.13;;;;;;;;;;5076103;28;20025;-60
2021/09/03 09:41:03;;;;;;;19.00;12.45;;;;;;;;;;5076919;28;20479;-59
2021/09/03 09:43:37;;;;;;;21.27;12.63;;;;;;;;;;5076699;28;20029;-59
2021/09/03 09:46:13;;;;;;;20.77;12.70;;;;;;;;;;5076641;28;20043;-59
2021/09/03 09:49:06;;;;;;;17.55;11.07;;;;;;;;;;5071839;28;20036;-59
2021/09/03 09:51:37;;;;;;;17.77;11.15;;;;;;;;;;5070480;28;20097;-60
2021/09/03 09:54:05;;;;;;;18.45;11.98;;;;;;;;;;5076236;28;20064;-59
2021/09/03 09:56:36;;;;;;;18.40;11.10;;;;;;;;;;5076899;28;20028;-60
2021/09/03 09:59:03;;;;;;;18.25;11.38;;;;;;;;;;5075238;28;20035;-60
2021/09/03 10:01:32;;;;;;;15.38;10.30;;;;;;;;;;5075774;28;20039;-59
2021/09/03 10:04:01;;;;;;;18.00;11.80;;;;;;;;;;5076638;28;20056;-61
2021/09/03 10:06:29;;;;;;;16.52;10.90;;;;;;;;;;5080747;28;20056;-59
2021/09/03 10:08:58;;;;;;;15.60;10.07;;;;;;;;;;5082882;28;20029;-59
2021/09/03 10:11:25;;;;;;;17.67;10.98;;;;;;;;;;5076770;28;20032;-59
2021/09/03 10:13:51;;;;;;;15.43;9.88;;;;;;;;;;5076493;28;20170;-59
2021/09/03 10:16:17;;;;;;;15.48;9.35;;;;;;;;;;5063229;28;20021;-59
2021/09/03 10:18:45;;;;;;;15.82;9.52;;;;;;;;;;5076493;28;20025;-59
2021/09/03 10:21:12;;;;;;;16.40;10.70;;;;;;;;;;5075690;28;20021;-60
2021/09/03 10:23:47;;;;;;;16.63;10.73;;;;;;;;;;5076323;28;20020;-60
2021/09/03 10:26:14;;;;;;;19.15;11.20;;;;;;;;;;5066698;28;20028;-60
2021/09/03 10:28:40;;;;;;;18.33;12.38;;;;;;;;;;5076304;28;20023;-60
2021/09/03 10:31:07;;;;;;;20.05;12.55;;;;;;;;;;5076252;28;20044;-59
2021/09/03 10:33:37;;;;;;;19.35;12.80;;;;;;;;;;5080441;28;20085;-60
2021/09/03 10:36:03;;;;;;;21.83;13.20;;;;;;;;;;5078729;28;20024;-60
2021/09/03 10:38:34;;;;;;;22.90;13.90;;;;;;;;;;5080070;28;20486;-62
2021/09/03 10:41:04;;;;;;;21.67;13.95;;;;;;;;;;5080667;28;20059;-61
2021/09/03 10:43:39;;;;;;;22.55;14.63;;;;;;;;;;5080561;28;20041;-67
2021/09/03 10:46:09;;;;;;;24.73;13.45;;;;;;;;;;5080428;28;20493;-66
2021/09/03 10:48:35;;;;;;;22.05;15.27;;;;;;;;;;5076121;28;20374;-65
2021/09/03 10:51:02;;;;;;;24.80;14.63;;;;;;;;;;5072351;28;20537;-63
2021/09/03 10:53:32;;;;;;;27.95;14.40;;;;;;;;;;5079815;28;20025;-65
2021/09/03 10:56:07;;;;;;;28.05;15.80;;;;;;;;;;5080055;28;20089;-68
2021/09/03 10:58:42;;;;;;;32.20;16.75;;;;;;;;;;5085157;28;20029;-65
2021/09/03 11:01:11;;;;;;;24.80;14.23;;;;;;;;;;5080149;28;20016;-66
2021/09/03 11:03:37;;;;;;;24.92;16.65;;;;;;;;;;5080165;28;20039;-68
2021/09/03 11:06:03;;;;;;;45.92;27.23;;;;;;;;;;5080442;28;20032;-66
2021/09/03 11:08:39;;;;;;;49.95;29.70;;;;;;;;;;5080156;28;20020;-66
2021/09/03 11:11:24;;;;;;;50.15;31.90;;;;;;;;;;5080256;28;20025;-66
2021/09/03 11:13:51;;;;;;;52.03;34.67;;;;;;;;;;5079855;28;20059;-67
2021/09/03 11:16:30;;;;;;;69.18;42.30;;;;;;;;;;5066337;28;20024;-69
2021/09/03 11:19:03;;;;;;;74.93;44.95;;;;;;;;;;5080979;28;20387;-67
2021/09/03 11:21:33;;;;;;;74.93;44.25;;;;;;;;;;5080041;28;20025;-65
2021/09/03 11:23:59;;;;;;;71.30;45.38;;;;;;;;;;5079240;28;20028;-63
2021/09/03 11:26:29;;;;;;;83.72;51.40;;;;;;;;;;5079669;28;20021;-64
2021/09/03 11:29:00;;;;;;;76.68;47.17;;;24.40;56.90;;;;;;5079751;28;20024;-71
2021/09/03 11:31:26;;;;;;;41.53;25.38;;;24.20;57.60;;;;;;5070215;28;20059;-69
2021/09/03 11:33:52;;;;;;;58.63;39.25;;;24.10;58.70;;;;;;5079052;28;21153;-71
2021/09/03 11:36:18;;;;;;;70.95;48.85;;;24.30;59.60;;;;;;5079612;28;20031;-71
2021/09/03 11:38:52;;;;;;;43.05;28.40;;;24.60;60.00;;;;;;5076085;28;20024;-73
2021/09/03 11:41:18;;;;;;;29.35;19.23;;;24.80;60.10;;;;;;5078926;28;20035;-71
2021/09/03 11:43:44;;;;;;;30.05;18.80;;;25.00;59.70;;;;;;5089013;28;20025;-71
2021/09/03 11:46:20;;;;;;;31.90;18.73;;;25.20;60.00;;;;;;5078815;28;20043;-71
2021/09/03 11:48:48;;;;;;;25.98;15.73;;;25.40;59.80;;;;;;5064508;28;20143;-70
2021/09/03 11:51:21;;;;;;;26.05;16.33;;;25.60;61.40;;;;;;5078940;28;20028;-70
2021/09/03 11:53:47;;;;;;;24.33;14.60;;;25.90;61.60;;;;;;5079062;28;20459;-70
2021/09/03 11:56:15;;;;;;;23.83;14.48;;;26.10;60.40;;;;;;5078769;28;20024;-71
2021/09/03 11:58:41;;;;;;;20.40;13.90;;;26.20;61.20;;;;;;5077746;28;20028;-70
2021/09/03 12:01:07;;;;;;;22.13;14.27;;;26.30;61.10;;;;;;5083353;28;20024;-71
2021/09/03 12:03:40;;;;;;;18.80;12.90;;;26.40;61.80;;;;;;5085678;28;20028;-71
2021/09/03 12:06:10;;;;;;;24.80;13.52;;;26.50;62.70;;;;;;5078934;28;20032;-71
2021/09/03 12:08:37;;;;;;;19.92;12.65;;;26.70;61.10;;;;;;5077184;28;20036;-71
2021/09/03 12:33:53;;;;;;;12.40;9.52;;;27.00;58.10;;;;;;5058727;28;20456;-71
2021/09/03 12:36:33;;;;;;;13.48;9.93;;;27.10;57.70;;;;;;5067104;28;20041;-72
2021/09/03 12:39:03;;;;;;;15.60;9.88;;;27.00;56.30;;;;;;5051289;28;20390;-71
2021/09/03 12:41:33;;;;;;;16.60;10.27;;;27.00;57.70;;;;;;5050541;28;20048;-71
2021/09/03 12:44:26;;;;;;;13.55;10.05;;;27.00;58.20;;;;;;5054000;28;20405;-70
2021/09/03 12:46:54;;;;;;;16.77;10.43;;;26.90;56.90;;;;;;5042786;28;20091;-73
2021/09/03 12:49:26;;;;;;;15.75;10.45;;;26.90;57.00;;;;;;5053960;28;20037;-72
2021/09/03 12:52:06;;;;;;;19.15;10.57;;;26.80;54.80;;;;;;5041983;28;20057;-72
2021/09/03 12:54:37;;;;;;;14.80;10.38;;;26.70;54.00;;;;;;5051643;28;20037;-72
2021/09/03 12:57:04;;;;;;;15.63;10.23;;;26.50;54.10;;;;;;5053148;28;20383;-72
2021/09/03 12:59:30;;;;;;;15.20;10.35;;;26.40;54.90;;;;;;5040484;28;20483;-73
2021/09/03 13:01:57;;;;;;;17.52;11.07;;;26.40;54.40;;;;;;5053577;28;20025;-73
2021/09/03 13:04:27;;;;;;;16.25;11.15;;;26.30;55.10;;;;;;5053207;28;20033;-73
2021/09/03 13:06:55;;;;;;;15.40;10.88;;;26.20;55.70;;;;;;5053844;28;20028;-72
2021/09/03 13:09:30;;;;;;;17.20;10.85;;;26.10;56.40;;;;;;5052955;28;20040;-73
2021/09/03 13:12:02;;;;;;;18.77;11.38;;;26.00;55.80;;;;;;5051951;28;20053;-73
2021/09/03 13:14:28;;;;;;;16.83;11.15;;;26.00;54.80;;;;;;5058516;28;20028;-73
2021/09/03 13:16:57;;;;;;;16.98;11.70;;;25.90;55.20;;;;;;5070180;28;20074;-71
2021/09/03 13:19:23;;;;;;;15.65;10.02;;;25.90;55.20;;;;;;5053581;28;20084;-74
2021/09/03 13:21:49;;;;;;;14.82;9.90;;;25.80;55.20;;;;;;5067181;28;20021;-70
2021/09/03 13:24:15;;;;;;;64.85;44.80;;;25.80;55.40;;;;;;5067270;28;20030;-71
2021/09/03 13:26:41;;;;;;;30.23;20.45;;;25.80;55.60;;;;;;5053515;28;20079;-71
2021/09/03 13:29:07;;;;;;;18.20;13.32;;;25.80;55.80;;;;;;5053371;28;20390;-71
2021/09/03 13:31:34;;;;;;;18.50;12.52;;;25.70;55.50;;;;;;5054335;28;20108;-71
2021/09/03 13:34:01;;;;;;;19.05;10.70;;;25.70;54.80;;;;;;5043632;28;20093;-74
2021/09/03 13:36:28;;;;;;;16.25;9.75;;;25.70;55.50;;;;;;5039994;28;20510;-74
2021/09/03 13:39:01;;;;;;;15.43;10.10;;;25.70;55.10;;;;;;5039405;28;20032;-72
2021/09/03 13:41:28;;;;;;;14.93;9.40;;;25.70;54.70;;;;;;5040090;28;20048;-73
2021/09/03 13:43:54;;;;;;;15.75;9.98;;;25.60;54.40;;;;;;5039741;28;20022;-75
2021/09/03 13:46:20;;;;;;;17.85;9.50;;;25.60;54.90;;;;;;5039177;28;20391;-75
2021/09/03 13:48:46;;;;;;;14.95;9.35;;;25.60;54.10;;;;;;5045563;28;20032;-75
2021/09/03 13:51:14;;;;;;;26.35;10.45;;;25.60;54.30;;;;;;5045565;28;20025;-75
2021/09/03 13:53:40;;;;;;;16.08;10.32;;;25.60;55.00;;;;;;5039051;28;20014;-75
2021/09/03 13:56:06;;;;;;;16.55;9.68;;;25.60;55.10;;;;;;5039790;28;20503;-75
2021/09/03 13:58:32;;;;;;;14.65;9.85;;;25.60;54.80;;;;;;5037731;28;20017;-75
2021/09/03 14:00:58;;;;;;;18.85;9.75;;;25.60;54.30;;;;;;5039513;28;20515;-72
2021/09/03 14:03:24;;;;;;;17.08;9.55;;;25.60;54.50;;;;;;5038576;28;20048;-69
2021/09/03 14:05:51;;;;;;;15.85;10.02;;;25.70;55.30;;;;;;5039491;28;20022;-71
2021/09/03 14:08:16;;;;;;;14.55;9.48;;;26.00;55.30;;;;;;5039283;28;20026;-71
2021/09/03 14:10:47;;;;;;;12.80;8.85;;;26.20;54.50;;;;;;5038974;28;20033;-71
2021/09/03 14:13:14;;;;;;;15.95;9.35;;;26.40;54.70;;;;;;5039379;28;20029;-72
2021/09/03 14:15:40;;;;;;;13.50;9.73;;;26.70;54.10;;;;;;5039390;28;20026;-72
2021/09/03 14:18:07;;;;;;;14.68;9.38;;;26.80;52.90;;;;;;5039656;28;20511;-72
2021/09/03 14:20:34;;;;;;;15.75;9.43;;;27.00;52.20;;;;;;5039082;28;20435;-72
2021/09/03 14:23:00;;;;;;;17.35;10.25;;;27.10;51.30;;;;;;5043472;28;20013;-72